Portada
METAR-TAF:

METAR-TAF

Aeropuertos :

Mécheria, Argelia

latitud: 34-56N, longitud: 000-26W, altitud: 1149 m

Observación

El informe se hizo hace 2 horas y 49 minutos, a las 23:00 UTC
Viento 10 kt del norte
Temperatura 30°C
Humedad 35%
Presión 1024 hPa
Visibilidad: 8000 m
Nubes dispersas a una altura de 3000 ft

METAR: DAAY 162300Z 36010KT 8000 SCT030 30/13 Q1024

Hora: 02:49 (01:49 UTC)

Pronóstico

El informe se hizo hace 8 horas y 49 minutos, a las 17:00 UTC
Pronóstico válido del 16 a las 18 UTC al 17 a las 03 UTC
Viento 2 kt con dirección variable
Visibilidad: 8000 m
Escasas nubes a una altura de 3000 ft
Temporalmente
del 16 a las 18 UTC al 17 a las 01 UTC
Viento 12 kt del norte-noreste
Visibilidad: 6000 m
Escasas nubes a una altura de 2600 ft, Cumulonimbus.
Cielo nuboso a una altura de 10000 ft
tormenta, lluvia ligera

TAF: DAAY 161700Z 1618/1703 VRB02KT 8000 FEW030 TEMPO 1618/1701 02012KT 6000 -TSRA FEW026CB BKN100

Observaciones y pronósticos meteorológicos de más de 4000 aeropuertos (mensajes METAR y TAF).

Los puntos amarillos y rojos representan las estaciones disponibles.

Ponga el ratón en el punto deseado para ver el nombre de la estación.

Haga clic para ver las observaciones y los pronósticos meteorológicos.

Para cambiar el mapa : haga clic en los botones verdes con una cruz de color negro para hacer un zoom, en el botón verde con un guión para alejar o en las flechas verdes para mapas adyacentes.


METAR-TAF: